sensor_id;sensor_type;location;lat;lon;timestamp;pressure;altitude;pressure_sealevel;temperature;humidity
32456;BME280;18912;43.270;27.942;2023-02-21T00:00:52;98029.59;;;9.64;53.46
32456;BME280;18912;43.270;27.942;2023-02-21T00:03:36;98011.13;;;9.61;53.55
32456;BME280;18912;43.270;27.942;2023-02-21T00:06:20;98022.72;;;9.55;53.91
32456;BME280;18912;43.270;27.942;2023-02-21T00:09:04;98008.34;;;9.41;54.30
32456;BME280;18912;43.270;27.942;2023-02-21T00:11:48;98013.19;;;9.59;54.07
32456;BME280;18912;43.270;27.942;2023-02-21T00:14:32;98008.63;;;9.66;54.21
32456;BME280;18912;43.270;27.942;2023-02-21T00:17:16;98021.22;;;9.39;54.64
32456;BME280;18912;43.270;27.942;2023-02-21T00:20:00;98009.09;;;9.76;54.20
32456;BME280;18912;43.270;27.942;2023-02-21T00:22:44;97996.16;;;9.52;54.67
32456;BME280;18912;43.270;27.942;2023-02-21T00:25:29;98014.50;;;9.89;54.08
32456;BME280;18912;43.270;27.942;2023-02-21T00:28:13;98011.97;;;9.68;54.86
32456;BME280;18912;43.270;27.942;2023-02-21T00:30:56;98008.28;;;9.82;54.33
32456;BME280;18912;43.270;27.942;2023-02-21T00:33:40;97999.97;;;9.83;54.33
32456;BME280;18912;43.270;27.942;2023-02-21T00:36:25;97991.25;;;9.94;54.32
32456;BME280;18912;43.270;27.942;2023-02-21T00:39:08;97978.59;;;9.82;54.28
32456;BME280;18912;43.270;27.942;2023-02-21T00:41:52;97978.16;;;9.98;53.93
32456;BME280;18912;43.270;27.942;2023-02-21T00:44:36;97972.13;;;9.96;54.09
32456;BME280;18912;43.270;27.942;2023-02-21T00:47:20;97968.81;;;10.07;54.07
32456;BME280;18912;43.270;27.942;2023-02-21T00:50:04;97951.97;;;10.05;53.85
32456;BME280;18912;43.270;27.942;2023-02-21T00:52:49;97970.94;;;10.31;53.28
32456;BME280;18912;43.270;27.942;2023-02-21T00:55:32;97977.59;;;10.15;53.83
32456;BME280;18912;43.270;27.942;2023-02-21T00:58:20;97973.84;;;10.16;53.60
32456;BME280;18912;43.270;27.942;2023-02-21T01:01:04;97975.06;;;10.33;53.28
32456;BME280;18912;43.270;27.942;2023-02-21T01:03:48;97976.31;;;10.38;52.97
32456;BME280;18912;43.270;27.942;2023-02-21T01:06:32;97963.00;;;10.49;52.60
32456;BME280;18912;43.270;27.942;2023-02-21T01:09:15;97958.22;;;10.58;52.13
32456;BME280;18912;43.270;27.942;2023-02-21T01:11:59;97955.94;;;10.55;52.42
32456;BME280;18912;43.270;27.942;2023-02-21T01:14:43;97947.00;;;10.54;52.48
32456;BME280;18912;43.270;27.942;2023-02-21T01:17:27;97947.69;;;10.23;53.10
32456;BME280;18912;43.270;27.942;2023-02-21T01:20:11;97948.84;;;10.60;52.08
32456;BME280;18912;43.270;27.942;2023-02-21T01:22:55;97943.84;;;10.70;51.90
32456;BME280;18912;43.270;27.942;2023-02-21T01:25:39;97928.50;;;10.58;51.71
32456;BME280;18912;43.270;27.942;2023-02-21T01:28:23;97934.34;;;10.48;51.92
32456;BME280;18912;43.270;27.942;2023-02-21T01:31:07;97916.44;;;10.47;51.58
32456;BME280;18912;43.270;27.942;2023-02-21T01:33:51;97916.56;;;10.78;51.10
32456;BME280;18912;43.270;27.942;2023-02-21T01:36:35;97904.94;;;10.78;50.99
32456;BME280;18912;43.270;27.942;2023-02-21T01:39:19;97890.63;;;10.64;51.10
32456;BME280;18912;43.270;27.942;2023-02-21T01:42:03;97911.56;;;10.88;50.86
32456;BME280;18912;43.270;27.942;2023-02-21T01:44:47;97922.06;;;11.09;50.08
32456;BME280;18912;43.270;27.942;2023-02-21T01:47:32;97913.69;;;11.17;49.77
32456;BME280;18912;43.270;27.942;2023-02-21T01:50:24;97902.94;;;11.04;49.92
32456;BME280;18912;43.270;27.942;2023-02-21T01:53:13;97900.47;;;11.03;49.99
32456;BME280;18912;43.270;27.942;2023-02-21T01:56:07;97896.69;;;11.04;49.98
32456;BME280;18912;43.270;27.942;2023-02-21T01:58:54;97895.06;;;10.96;50.04
32456;BME280;18912;43.270;27.942;2023-02-21T02:01:53;97883.84;;;10.99;49.86
32456;BME280;18912;43.270;27.942;2023-02-21T02:04:41;97891.09;;;11.05;49.41
32456;BME280;18912;43.270;27.942;2023-02-21T02:07:25;97886.47;;;11.12;49.66
32456;BME280;18912;43.270;27.942;2023-02-21T02:10:10;97878.44;;;10.93;49.98
32456;BME280;18912;43.270;27.942;2023-02-21T02:15:47;97875.13;;;11.28;49.10
32456;BME280;18912;43.270;27.942;2023-02-21T02:23:59;97881.13;;;11.37;48.61
32456;BME280;18912;43.270;27.942;2023-02-21T02:29:38;97883.81;;;11.75;47.87
32456;BME280;18912;43.270;27.942;2023-02-21T02:37:37;97902.09;;;11.48;48.16
32456;BME280;18912;43.270;27.942;2023-02-21T02:48:57;97893.88;;;11.61;47.72
32456;BME280;18912;43.270;27.942;2023-02-21T02:51:25;97888.72;;;11.84;47.35
32456;BME280;18912;43.270;27.942;2023-02-21T02:53:51;97869.56;;;11.55;47.77
32456;BME280;18912;43.270;27.942;2023-02-21T02:56:16;97891.38;;;11.60;47.48
32456;BME280;18912;43.270;27.942;2023-02-21T03:12:57;97886.25;;;11.83;46.93
32456;BME280;18912;43.270;27.942;2023-02-21T03:15:49;97885.91;;;11.73;46.99
32456;BME280;18912;43.270;27.942;2023-02-21T03:20:55;97867.78;;;11.98;46.25
32456;BME280;18912;43.270;27.942;2023-02-21T03:23:25;97893.16;;;11.79;46.53
32456;BME280;18912;43.270;27.942;2023-02-21T03:25:53;97892.31;;;12.03;46.28
32456;BME280;18912;43.270;27.942;2023-02-21T03:28:20;97899.44;;;11.97;46.24
32456;BME280;18912;43.270;27.942;2023-02-21T03:30:48;97891.81;;;12.12;45.77
32456;BME280;18912;43.270;27.942;2023-02-21T03:33:15;97900.63;;;12.51;44.99
32456;BME280;18912;43.270;27.942;2023-02-21T03:35:40;97900.28;;;11.98;45.83
32456;BME280;18912;43.270;27.942;2023-02-21T03:38:06;97893.50;;;11.89;46.22
32456;BME280;18912;43.270;27.942;2023-02-21T03:40:32;97898.72;;;11.84;46.15
32456;BME280;18912;43.270;27.942;2023-02-21T03:43:00;97894.75;;;11.86;46.21
32456;BME280;18912;43.270;27.942;2023-02-21T03:45:26;97904.66;;;11.99;45.79
32456;BME280;18912;43.270;27.942;2023-02-21T03:47:51;97905.00;;;11.78;46.31
32456;BME280;18912;43.270;27.942;2023-02-21T03:50:17;97909.78;;;12.07;45.43
32456;BME280;18912;43.270;27.942;2023-02-21T03:52:42;97913.84;;;11.67;46.19
32456;BME280;18912;43.270;27.942;2023-02-21T03:55:08;97915.31;;;11.69;46.11
32456;BME280;18912;43.270;27.942;2023-02-21T03:57:34;97912.00;;;11.92;45.98
32456;BME280;18912;43.270;27.942;2023-02-21T03:59:59;97911.34;;;11.96;45.65
32456;BME280;18912;43.270;27.942;2023-02-21T04:02:25;97906.44;;;11.87;45.44
32456;BME280;18912;43.270;27.942;2023-02-21T04:04:51;97915.59;;;12.10;45.23
32456;BME280;18912;43.270;27.942;2023-02-21T04:07:18;97896.03;;;12.08;44.99
32456;BME280;18912;43.270;27.942;2023-02-21T04:09:44;97897.19;;;12.19;44.83
32456;BME280;18912;43.270;27.942;2023-02-21T04:12:10;97885.56;;;12.55;44.45
32456;BME280;18912;43.270;27.942;2023-02-21T04:14:36;97869.22;;;12.25;44.82
32456;BME280;18912;43.270;27.942;2023-02-21T04:17:01;97880.16;;;12.12;45.35
32456;BME280;18912;43.270;27.942;2023-02-21T04:19:27;97854.44;;;12.21;44.95
32456;BME280;18912;43.270;27.942;2023-02-21T04:21:52;97877.63;;;12.35;44.72
32456;BME280;18912;43.270;27.942;2023-02-21T04:24:19;97872.38;;;12.58;44.45
32456;BME280;18912;43.270;27.942;2023-02-21T04:26:44;97873.91;;;12.11;44.81
32456;BME280;18912;43.270;27.942;2023-02-21T04:29:10;97882.34;;;12.64;44.09
32456;BME280;18912;43.270;27.942;2023-02-21T04:31:35;97872.75;;;12.44;44.25
32456;BME280;18912;43.270;27.942;2023-02-21T04:34:01;97877.81;;;12.76;43.84
32456;BME280;18912;43.270;27.942;2023-02-21T04:36:26;97881.66;;;12.69;43.90
32456;BME280;18912;43.270;27.942;2023-02-21T04:38:52;97877.22;;;12.74;43.88
32456;BME280;18912;43.270;27.942;2023-02-21T04:41:18;97873.13;;;12.65;43.79
32456;BME280;18912;43.270;27.942;2023-02-21T04:43:44;97862.59;;;12.75;43.71
32456;BME280;18912;43.270;27.942;2023-02-21T04:46:12;97852.34;;;12.77;43.73
32456;BME280;18912;43.270;27.942;2023-02-21T04:48:43;97861.69;;;12.81;43.87
32456;BME280;18912;43.270;27.942;2023-02-21T04:51:13;97866.81;;;12.71;43.92
32456;BME280;18912;43.270;27.942;2023-02-21T04:53:39;97851.50;;;12.95;43.42
32456;BME280;18912;43.270;27.942;2023-02-21T04:56:05;97866.66;;;12.66;43.78
32456;BME280;18912;43.270;27.942;2023-02-21T04:58:30;97853.22;;;12.35;44.45
32456;BME280;18912;43.270;27.942;2023-02-21T05:00:56;97848.56;;;12.78;43.86
32456;BME280;18912;43.270;27.942;2023-02-21T05:03:21;97839.00;;;12.76;43.95
32456;BME280;18912;43.270;27.942;2023-02-21T05:05:49;97828.47;;;12.86;43.60
32456;BME280;18912;43.270;27.942;2023-02-21T05:08:14;97835.81;;;12.97;43.54
32456;BME280;18912;43.270;27.942;2023-02-21T05:10:39;97849.69;;;12.89;43.55
32456;BME280;18912;43.270;27.942;2023-02-21T05:13:05;97841.69;;;12.94;43.43
32456;BME280;18912;43.270;27.942;2023-02-21T05:15:30;97837.56;;;12.91;43.30
32456;BME280;18912;43.270;27.942;2023-02-21T05:17:56;97839.66;;;13.07;43.29
32456;BME280;18912;43.270;27.942;2023-02-21T05:20:21;97835.13;;;13.20;43.21
32456;BME280;18912;43.270;27.942;2023-02-21T05:22:48;97839.28;;;13.34;42.95
32456;BME280;18912;43.270;27.942;2023-02-21T05:25:19;97834.47;;;13.06;43.38
32456;BME280;18912;43.270;27.942;2023-02-21T05:27:45;97835.16;;;13.31;43.13
32456;BME280;18912;43.270;27.942;2023-02-21T05:30:12;97829.50;;;13.33;43.42
32456;BME280;18912;43.270;27.942;2023-02-21T05:32:37;97802.00;;;13.29;43.19
32456;BME280;18912;43.270;27.942;2023-02-21T05:35:03;97829.50;;;13.33;43.03
32456;BME280;18912;43.270;27.942;2023-02-21T05:37:29;97841.25;;;13.68;42.55
32456;BME280;18912;43.270;27.942;2023-02-21T05:39:54;97850.03;;;13.81;42.17
32456;BME280;18912;43.270;27.942;2023-02-21T05:42:20;97847.97;;;14.30;41.37
32456;BME280;18912;43.270;27.942;2023-02-21T05:44:46;97857.03;;;14.24;41.40
32456;BME280;18912;43.270;27.942;2023-02-21T05:47:13;97850.53;;;14.25;41.31
32456;BME280;18912;43.270;27.942;2023-02-21T05:49:39;97852.94;;;14.44;40.71
32456;BME280;18912;43.270;27.942;2023-02-21T05:52:05;97865.56;;;14.62;40.69
32456;BME280;18912;43.270;27.942;2023-02-21T05:54:30;97872.78;;;14.68;40.33
32456;BME280;18912;43.270;27.942;2023-02-21T05:56:56;97866.50;;;14.67;40.28
32456;BME280;18912;43.270;27.942;2023-02-21T05:59:22;97865.09;;;15.05;39.80
32456;BME280;18912;43.270;27.942;2023-02-21T06:01:48;97862.34;;;14.65;40.24
32456;BME280;18912;43.270;27.942;2023-02-21T06:04:15;97860.09;;;14.85;40.09
32456;BME280;18912;43.270;27.942;2023-02-21T06:06:41;97849.78;;;15.27;39.58
32456;BME280;18912;43.270;27.942;2023-02-21T06:09:08;97845.31;;;15.49;39.20
32456;BME280;18912;43.270;27.942;2023-02-21T06:11:35;97863.75;;;15.75;38.70
32456;BME280;18912;43.270;27.942;2023-02-21T06:14:03;97866.41;;;15.86;38.37
32456;BME280;18912;43.270;27.942;2023-02-21T06:16:36;97863.38;;;16.16;37.95
32456;BME280;18912;43.270;27.942;2023-02-21T06:19:04;97873.19;;;15.84;38.01
32456;BME280;18912;43.270;27.942;2023-02-21T06:21:30;97867.16;;;16.48;37.43
32456;BME280;18912;43.270;27.942;2023-02-21T06:23:56;97863.19;;;16.56;37.34
32456;BME280;18912;43.270;27.942;2023-02-21T06:26:22;97859.78;;;16.87;36.72
32456;BME280;18912;43.270;27.942;2023-02-21T06:28:48;97857.56;;;17.27;36.07
32456;BME280;18912;43.270;27.942;2023-02-21T06:31:14;97858.25;;;17.18;35.91
32456;BME280;18912;43.270;27.942;2023-02-21T06:33:40;97851.03;;;18.08;35.21
32456;BME280;18912;43.270;27.942;2023-02-21T06:36:11;97856.19;;;17.78;34.97
32456;BME280;18912;43.270;27.942;2023-02-21T06:38:37;97859.81;;;18.15;34.49
32456;BME280;18912;43.270;27.942;2023-02-21T06:41:09;97861.78;;;18.56;34.07
32456;BME280;18912;43.270;27.942;2023-02-21T06:43:35;97865.53;;;18.45;34.07
32456;BME280;18912;43.270;27.942;2023-02-21T06:46:03;97858.78;;;18.58;33.80
32456;BME280;18912;43.270;27.942;2023-02-21T06:48:30;97853.34;;;18.26;34.11
32456;BME280;18912;43.270;27.942;2023-02-21T06:50:55;97855.06;;;18.37;34.35
32456;BME280;18912;43.270;27.942;2023-02-21T06:53:21;97849.47;;;18.22;34.41
32456;BME280;18912;43.270;27.942;2023-02-21T06:55:46;97850.88;;;18.61;33.79
32456;BME280;18912;43.270;27.942;2023-02-21T06:58:12;97842.13;;;18.64;33.42
32456;BME280;18912;43.270;27.942;2023-02-21T07:00:38;97846.50;;;18.65;33.25
32456;BME280;18912;43.270;27.942;2023-02-21T07:03:03;97839.47;;;18.75;33.44
32456;BME280;18912;43.270;27.942;2023-02-21T07:05:29;97830.38;;;19.31;32.92
32456;BME280;18912;43.270;27.942;2023-02-21T07:07:59;97828.38;;;19.11;32.72
32456;BME280;18912;43.270;27.942;2023-02-21T07:10:24;97829.38;;;19.57;32.20
32456;BME280;18912;43.270;27.942;2023-02-21T07:12:50;97821.44;;;20.51;31.17
32456;BME280;18912;43.270;27.942;2023-02-21T07:15:15;97836.16;;;21.00;30.36
32456;BME280;18912;43.270;27.942;2023-02-21T07:17:41;97836.69;;;20.97;29.93
32456;BME280;18912;43.270;27.942;2023-02-21T07:20:06;97824.06;;;21.55;29.45
32456;BME280;18912;43.270;27.942;2023-02-21T07:22:32;97822.13;;;22.33;28.73
32456;BME280;18912;43.270;27.942;2023-02-21T07:24:57;97821.94;;;22.58;27.92
32456;BME280;18912;43.270;27.942;2023-02-21T07:27:23;97811.59;;;23.58;27.11
32456;BME280;18912;43.270;27.942;2023-02-21T07:29:49;97813.41;;;25.51;25.55
32456;BME280;18912;43.270;27.942;2023-02-21T07:32:15;97804.00;;;24.84;25.51
32456;BME280;18912;43.270;27.942;2023-02-21T07:34:41;97809.94;;;25.32;24.84
32456;BME280;18912;43.270;27.942;2023-02-21T07:37:07;97816.09;;;24.88;25.62
32456;BME280;18912;43.270;27.942;2023-02-21T07:39:33;97803.69;;;24.85;25.60
32456;BME280;18912;43.270;27.942;2023-02-21T07:41:58;97796.88;;;24.64;25.67
32456;BME280;18912;43.270;27.942;2023-02-21T07:44:24;97797.44;;;27.11;23.47
32456;BME280;18912;43.270;27.942;2023-02-21T07:46:49;97794.44;;;23.61;26.47
32456;BME280;18912;43.270;27.942;2023-02-21T07:49:14;97789.03;;;22.67;27.69
32456;BME280;18912;43.270;27.942;2023-02-21T07:51:40;97776.78;;;23.44;27.26
32456;BME280;18912;43.270;27.942;2023-02-21T07:54:05;97775.84;;;21.29;29.39
32456;BME280;18912;43.270;27.942;2023-02-21T07:56:31;97787.00;;;20.89;30.16
32456;BME280;18912;43.270;27.942;2023-02-21T07:58:56;97775.97;;;20.99;30.33
32456;BME280;18912;43.270;27.942;2023-02-21T08:01:23;97793.66;;;20.68;30.36
32456;BME280;18912;43.270;27.942;2023-02-21T08:03:49;97792.66;;;20.33;31.06
32456;BME280;18912;43.270;27.942;2023-02-21T08:06:14;97803.63;;;19.88;31.31
32456;BME280;18912;43.270;27.942;2023-02-21T08:08:40;97791.72;;;19.27;32.46
32456;BME280;18912;43.270;27.942;2023-02-21T08:11:05;97794.84;;;19.56;32.06
32456;BME280;18912;43.270;27.942;2023-02-21T08:13:31;97797.03;;;20.19;31.82
32456;BME280;18912;43.270;27.942;2023-02-21T08:15:56;97786.63;;;20.11;31.64
32456;BME280;18912;43.270;27.942;2023-02-21T08:18:22;97797.84;;;19.95;31.58
32456;BME280;18912;43.270;27.942;2023-02-21T08:20:52;97786.03;;;20.44;31.65
32456;BME280;18912;43.270;27.942;2023-02-21T08:23:19;97785.78;;;20.16;31.57
32456;BME280;18912;43.270;27.942;2023-02-21T08:25:44;97787.72;;;20.05;31.80
32456;BME280;18912;43.270;27.942;2023-02-21T08:28:10;97774.84;;;21.05;30.91
32456;BME280;18912;43.270;27.942;2023-02-21T08:30:36;97779.03;;;20.87;30.82
32456;BME280;18912;43.270;27.942;2023-02-21T08:33:05;97750.22;;;21.33;30.22
32456;BME280;18912;43.270;27.942;2023-02-21T08:35:30;97764.50;;;20.77;31.05
32456;BME280;18912;43.270;27.942;2023-02-21T08:37:56;97762.03;;;21.39;30.32
32456;BME280;18912;43.270;27.942;2023-02-21T08:40:22;97758.31;;;21.97;29.94
32456;BME280;18912;43.270;27.942;2023-02-21T08:42:50;97763.31;;;21.08;30.24
32456;BME280;18912;43.270;27.942;2023-02-21T08:45:17;97752.06;;;20.20;31.32
32456;BME280;18912;43.270;27.942;2023-02-21T08:47:44;97768.78;;;20.34;31.49
32456;BME280;18912;43.270;27.942;2023-02-21T08:50:10;97776.63;;;20.71;31.36
32456;BME280;18912;43.270;27.942;2023-02-21T08:52:36;97777.34;;;21.06;30.91
32456;BME280;18912;43.270;27.942;2023-02-21T08:55:02;97788.22;;;20.53;31.54
32456;BME280;18912;43.270;27.942;2023-02-21T08:57:28;97775.03;;;20.55;31.42
32456;BME280;18912;43.270;27.942;2023-02-21T08:59:53;97778.88;;;20.54;31.63
32456;BME280;18912;43.270;27.942;2023-02-21T09:02:22;97782.75;;;20.42;31.69
32456;BME280;18912;43.270;27.942;2023-02-21T09:04:53;97779.28;;;20.96;31.29
32456;BME280;18912;43.270;27.942;2023-02-21T09:07:20;97765.34;;;21.36;31.02
32456;BME280;18912;43.270;27.942;2023-02-21T09:09:46;97769.28;;;22.02;30.44
32456;BME280;18912;43.270;27.942;2023-02-21T09:12:12;97769.09;;;21.06;31.05
32456;BME280;18912;43.270;27.942;2023-02-21T09:14:39;97747.91;;;21.51;30.78
32456;BME280;18912;43.270;27.942;2023-02-21T09:17:07;97742.78;;;20.85;31.05
32456;BME280;18912;43.270;27.942;2023-02-21T09:19:33;97755.28;;;20.53;32.05
32456;BME280;18912;43.270;27.942;2023-02-21T09:21:59;97747.16;;;20.91;31.46
32456;BME280;18912;43.270;27.942;2023-02-21T09:24:26;97745.75;;;20.99;31.29
32456;BME280;18912;43.270;27.942;2023-02-21T09:26:56;97743.72;;;20.56;32.19
32456;BME280;18912;43.270;27.942;2023-02-21T09:29:32;97747.50;;;20.75;31.75
32456;BME280;18912;43.270;27.942;2023-02-21T09:31:59;97751.97;;;20.51;32.06
32456;BME280;18912;43.270;27.942;2023-02-21T09:34:25;97741.53;;;20.53;31.81
32456;BME280;18912;43.270;27.942;2023-02-21T09:36:51;97744.00;;;20.54;31.94
32456;BME280;18912;43.270;27.942;2023-02-21T09:39:17;97738.28;;;20.40;31.96
32456;BME280;18912;43.270;27.942;2023-02-21T09:41:43;97732.31;;;20.18;32.21
32456;BME280;18912;43.270;27.942;2023-02-21T09:44:15;97727.66;;;20.19;32.71
32456;BME280;18912;43.270;27.942;2023-02-21T09:46:54;97726.06;;;20.77;31.80
32456;BME280;18912;43.270;27.942;2023-02-21T09:49:24;97726.22;;;20.31;32.11
32456;BME280;18912;43.270;27.942;2023-02-21T09:51:52;97726.22;;;20.41;31.80
32456;BME280;18912;43.270;27.942;2023-02-21T09:56:50;97710.81;;;20.45;31.43
32456;BME280;18912;43.270;27.942;2023-02-21T09:59:16;97696.72;;;20.72;31.21
32456;BME280;18912;43.270;27.942;2023-02-21T10:10:15;97681.41;;;21.10;30.48
32456;BME280;18912;43.270;27.942;2023-02-21T10:12:48;97668.94;;;21.22;30.75
32456;BME280;18912;43.270;27.942;2023-02-21T10:15:38;97658.19;;;20.87;30.16
32456;BME280;18912;43.270;27.942;2023-02-21T10:18:18;97656.88;;;20.70;30.91
32456;BME280;18912;43.270;27.942;2023-02-21T10:21:00;97657.22;;;21.07;30.35
32456;BME280;18912;43.270;27.942;2023-02-21T10:23:45;97638.69;;;21.27;30.44
32456;BME280;18912;43.270;27.942;2023-02-21T10:26:21;97632.78;;;21.05;30.58
32456;BME280;18912;43.270;27.942;2023-02-21T10:28:49;97611.97;;;21.33;30.09
32456;BME280;18912;43.270;27.942;2023-02-21T10:31:24;97622.19;;;21.27;30.34
32456;BME280;18912;43.270;27.942;2023-02-21T10:33:54;97618.28;;;21.67;29.86
32456;BME280;18912;43.270;27.942;2023-02-21T10:36:21;97612.16;;;21.42;29.74
32456;BME280;18912;43.270;27.942;2023-02-21T10:38:55;97605.06;;;21.35;29.51
32456;BME280;18912;43.270;27.942;2023-02-21T10:41:22;97594.50;;;21.19;29.77
32456;BME280;18912;43.270;27.942;2023-02-21T10:44:08;97601.53;;;21.35;29.76
32456;BME280;18912;43.270;27.942;2023-02-21T10:47:02;97602.13;;;21.27;29.84
32456;BME280;18912;43.270;27.942;2023-02-21T10:49:43;97611.59;;;21.45;29.71
32456;BME280;18912;43.270;27.942;2023-02-21T10:52:16;97605.72;;;21.27;29.49
32456;BME280;18912;43.270;27.942;2023-02-21T10:54:59;97620.38;;;21.13;29.92
32456;BME280;18912;43.270;27.942;2023-02-21T10:57:25;97607.16;;;21.15;29.37
32456;BME280;18912;43.270;27.942;2023-02-21T10:59:51;97616.00;;;21.12;29.97
32456;BME280;18912;43.270;27.942;2023-02-21T11:02:39;97616.09;;;20.97;29.94
32456;BME280;18912;43.270;27.942;2023-02-21T11:05:14;97617.44;;;21.67;29.68
32456;BME280;18912;43.270;27.942;2023-02-21T11:07:54;97612.31;;;21.55;29.36
32456;BME280;18912;43.270;27.942;2023-02-21T11:10:29;97613.63;;;22.15;28.92
32456;BME280;18912;43.270;27.942;2023-02-21T11:13:16;97605.53;;;22.00;28.97
32456;BME280;18912;43.270;27.942;2023-02-21T11:15:44;97604.97;;;22.26;28.97
32456;BME280;18912;43.270;27.942;2023-02-21T11:18:24;97596.50;;;22.42;28.59
32456;BME280;18912;43.270;27.942;2023-02-21T11:20:51;97599.34;;;22.79;28.23
32456;BME280;18912;43.270;27.942;2023-02-21T11:23:35;97604.00;;;22.97;28.18
32456;BME280;18912;43.270;27.942;2023-02-21T11:26:09;97595.41;;;22.85;27.71
32456;BME280;18912;43.270;27.942;2023-02-21T11:28:41;97589.66;;;23.00;27.81
32456;BME280;18912;43.270;27.942;2023-02-21T11:31:31;97587.38;;;23.20;27.67
32456;BME280;18912;43.270;27.942;2023-02-21T11:36:28;97582.28;;;22.77;27.46
32456;BME280;18912;43.270;27.942;2023-02-21T11:39:02;97574.16;;;22.67;27.36
32456;BME280;18912;43.270;27.942;2023-02-21T11:43:57;97562.34;;;22.24;27.53
32456;BME280;18912;43.270;27.942;2023-02-21T11:46:44;97556.25;;;22.46;27.55
32456;BME280;18912;43.270;27.942;2023-02-21T11:49:15;97557.38;;;22.45;27.51
32456;BME280;18912;43.270;27.942;2023-02-21T11:51:56;97551.78;;;22.07;27.62
32456;BME280;18912;43.270;27.942;2023-02-21T11:54:26;97563.09;;;22.29;27.19
32456;BME280;18912;43.270;27.942;2023-02-21T11:57:07;97567.84;;;22.00;27.38
32456;BME280;18912;43.270;27.942;2023-02-21T12:03:14;97555.94;;;21.86;27.13
32456;BME280;18912;43.270;27.942;2023-02-21T12:05:58;97555.41;;;22.69;26.74
32456;BME280;18912;43.270;27.942;2023-02-21T12:08:28;97549.44;;;22.19;27.13
32456;BME280;18912;43.270;27.942;2023-02-21T12:11:04;97538.50;;;22.14;27.02
32456;BME280;18912;43.270;27.942;2023-02-21T12:18:48;97522.19;;;21.99;26.73
32456;BME280;18912;43.270;27.942;2023-02-21T12:50:29;97492.38;;;21.07;27.15
32456;BME280;18912;43.270;27.942;2023-02-21T12:55:41;97487.50;;;20.99;27.30
32456;BME280;18912;43.270;27.942;2023-02-21T12:58:42;97486.41;;;20.95;27.45
32456;BME280;18912;43.270;27.942;2023-02-21T13:01:13;97478.63;;;20.73;27.70
32456;BME280;18912;43.270;27.942;2023-02-21T13:06:21;97475.88;;;20.34;27.66
32456;BME280;18912;43.270;27.942;2023-02-21T13:09:01;97484.34;;;20.82;27.44
32456;BME280;18912;43.270;27.942;2023-02-21T13:11:39;97466.81;;;20.39;27.23
32456;BME280;18912;43.270;27.942;2023-02-21T13:14:13;97478.16;;;20.17;27.61
32456;BME280;18912;43.270;27.942;2023-02-21T13:16:41;97479.22;;;20.31;27.61
32456;BME280;18912;43.270;27.942;2023-02-21T13:19:10;97485.72;;;20.79;27.17
32456;BME280;18912;43.270;27.942;2023-02-21T13:24:47;97471.53;;;20.33;27.82
32456;BME280;18912;43.270;27.942;2023-02-21T13:30:26;97487.69;;;20.74;27.59
32456;BME280;18912;43.270;27.942;2023-02-21T13:32:55;97470.75;;;20.62;27.71
32456;BME280;18912;43.270;27.942;2023-02-21T13:35:31;97476.91;;;20.48;27.73
32456;BME280;18912;43.270;27.942;2023-02-21T13:37:57;97479.38;;;20.84;27.91
32456;BME280;18912;43.270;27.942;2023-02-21T13:40:32;97489.59;;;21.12;27.76
32456;BME280;18912;43.270;27.942;2023-02-21T13:43:06;97483.34;;;21.30;27.31
32456;BME280;18912;43.270;27.942;2023-02-21T13:45:34;97474.75;;;21.60;26.79
32456;BME280;18912;43.270;27.942;2023-02-21T13:51:00;97463.94;;;21.92;25.90
32456;BME280;18912;43.270;27.942;2023-02-21T13:53:32;97470.38;;;22.25;26.05
32456;BME280;18912;43.270;27.942;2023-02-21T13:58:46;97474.06;;;22.15;26.05
32456;BME280;18912;43.270;27.942;2023-02-21T14:01:41;97482.94;;;22.50;26.27
32456;BME280;18912;43.270;27.942;2023-02-21T14:07:10;97475.22;;;22.33;26.02
32456;BME280;18912;43.270;27.942;2023-02-21T14:09:39;97489.41;;;22.40;26.05
32456;BME280;18912;43.270;27.942;2023-02-21T14:12:05;97485.69;;;22.50;26.00
32456;BME280;18912;43.270;27.942;2023-02-21T14:14:34;97477.13;;;22.33;26.36
32456;BME280;18912;43.270;27.942;2023-02-21T14:17:09;97486.75;;;22.35;26.18
32456;BME280;18912;43.270;27.942;2023-02-21T14:24:49;97488.66;;;22.16;26.87
32456;BME280;18912;43.270;27.942;2023-02-21T14:29:43;97506.16;;;22.25;26.81
32456;BME280;18912;43.270;27.942;2023-02-21T14:37:32;97500.38;;;21.84;26.32
32456;BME280;18912;43.270;27.942;2023-02-21T14:40:19;97499.50;;;21.60;26.28
32456;BME280;18912;43.270;27.942;2023-02-21T15:03:04;97507.41;;;21.43;27.45
32456;BME280;18912;43.270;27.942;2023-02-21T15:08:24;97514.72;;;21.29;27.27
32456;BME280;18912;43.270;27.942;2023-02-21T15:10:53;97509.59;;;21.46;27.30
32456;BME280;18912;43.270;27.942;2023-02-21T15:13:31;97521.88;;;21.25;27.68
32456;BME280;18912;43.270;27.942;2023-02-21T15:16:07;97516.63;;;20.95;27.68
32456;BME280;18912;43.270;27.942;2023-02-21T15:19:00;97522.22;;;21.18;27.54
32456;BME280;18912;43.270;27.942;2023-02-21T15:21:26;97523.41;;;21.07;27.58
32456;BME280;18912;43.270;27.942;2023-02-21T15:24:13;97515.22;;;21.02;27.75
32456;BME280;18912;43.270;27.942;2023-02-21T15:26:39;97516.72;;;20.85;28.11
32456;BME280;18912;43.270;27.942;2023-02-21T15:29:15;97511.34;;;20.70;28.34
32456;BME280;18912;43.270;27.942;2023-02-21T15:31:44;97494.41;;;20.58;28.77
32456;BME280;18912;43.270;27.942;2023-02-21T15:34:16;97509.00;;;20.48;28.88
32456;BME280;18912;43.270;27.942;2023-02-21T15:36:50;97480.34;;;20.25;29.09
32456;BME280;18912;43.270;27.942;2023-02-21T15:39:29;97466.47;;;20.02;29.56
32456;BME280;18912;43.270;27.942;2023-02-21T15:41:57;97419.47;;;19.70;29.65
32456;BME280;18912;43.270;27.942;2023-02-21T15:44:38;97418.69;;;19.64;29.99
32456;BME280;18912;43.270;27.942;2023-02-21T15:47:14;97460.34;;;19.61;30.16